• Join FlightAware (Why Join?)
  • Login
  • US Flag 
08:10AM EDT


 

Airport Tracker/Info


-or-


 

Live Flight TrackerFlight Track Log ✈ UAL563 ✈ 17-Jul-2013 ✈ KPHL - KORD

Flight Track Log - Related Links

Times and Time Zones

All times are in EDT time to prevent confusion due to time zone crossing. See the UAL563 flight status page for this flight to view local times or setup timezone preferences in your user account.

Time Position Orientation Groundspeed Altitude Reporting Facility
EDT Latitude Longitude Course Direction KTS MPH feet Rate Location/Type
06:24PM 39.8667 -75.2833 311° West 163 188 900  Level Philadelphia TRACON
06:26PM 39.8528 -75.4272 263° West 213 245 4,400 1,920 Climbing New York Center
06:27PM 39.9225 -75.4564 342° North 219 252 7,400 3,120 Climbing New York Center
06:28PM 40.2274 -75.5661 311° West  Level FlightAware Approximate
06:28PM 39.9944 -75.4828 344° North 253 291 10,600  Level New York Center
06:29PM 40.3008 -75.6762 311° West  Level FlightAware Approximate
06:29PM 40.0869 -75.5161 345° North 303 349 11,700  Level New York Center
06:30PM 40.1772 -75.5494 344° North 356 410 13,300 1,860 Climbing New York Center
06:31PM 40.2697 -75.6347 325° Northwest 374 430 15,500 1,860 Climbing New York Center
06:32PM 40.3364 -75.7322 312° West 389 448 17,100 1,200 Climbing New York Center
06:33PM 40.4108 -75.8464 311° West 409 471 17,900 1,380 Climbing New York Center
06:34PM 40.4528 -75.9833 292° West 409 471 19,800 1,680 Climbing New York Center
06:35PM 40.4772 -76.1353 282° West 415 478 21,300 1,320 Climbing New York Center
06:36PM 40.5033 -76.2928 282° West 428 493 22,600 1,320 Climbing New York Center
06:37PM 40.5283 -76.4669 281° West 433 498 24,000 1,380 Climbing New York Center
06:38PM 40.5578 -76.6306 283° West 444 511 25,400 1,320 Climbing New York Center
06:39PM 40.6000 -76.7872 290° West 454 522 26,600 1,080 Climbing New York Center
06:40PM 40.6439 -76.9497 290° West 464 534 27,600 840 Climbing New York Center
06:41PM 40.6875 -77.1097 290° West 464 534 28,400 1,080 Climbing New York Center
06:42PM 40.7283 -77.2753 288° West 469 540 29,800 1,440 Climbing New York Center
06:43PM 40.7719 -77.4328 290° West 469 540 31,400 1,500 Climbing New York Center
06:44PM 40.8131 -77.5878 289° West 464 534 32,900 1,320 Climbing New York Center
06:46PM 40.8742 -77.8317 288° West 440 506 34,900 960 Climbing Cleveland Center
06:47PM 40.9111 -77.9839 288° West 440 506 35,500 480 Climbing Cleveland Center
06:48PM 40.9333 -78.1453 280° West 434 499 35,900 240 Climbing Cleveland Center
06:49PM 40.9581 -78.3258 280° West 451 519 36,000  Climbing Cleveland Center
06:50PM 40.9797 -78.4900 280° West 451 519 36,000  Level Cleveland Center
06:51PM 40.9972 -78.6544 278° West 451 519 36,000  Level Cleveland Center
06:52PM 41.0167 -78.8164 279° West 451 519 36,000 -60 Level Cleveland Center
06:53PM 41.0356 -78.9756 279° West 451 519 35,900 -60 Descending Cleveland Center
06:54PM 41.0567 -79.1347 280° West 445 512 35,900  Level Cleveland Center
06:55PM 41.0731 -79.2969 278° West 445 512 35,900  Level Cleveland Center
06:56PM 41.0914 -79.4592 279° West 445 512 36,000  Climbing Cleveland Center
06:57PM 41.1075 -79.6186 278° West 445 512 36,000  Level Cleveland Center
06:58PM 41.1275 -79.7756 280° West 445 512 36,000  Level Cleveland Center
06:59PM 41.1408 -79.9242 277° West 445 512 36,000 -60 Level Cleveland Center
07:00PM 41.1628 -80.0978 280° West 445 512 35,900  Descending Cleveland Center
07:01PM 41.1778 -80.2575 277° West 439 505 36,000  Climbing Cleveland Center
07:02PM 41.1928 -80.4064 278° West 449 517 35,900  Descending Cleveland Center
07:03PM 41.2075 -80.5667 277° West 449 517 36,000  Climbing Cleveland Center
07:04PM 41.2239 -80.7294 278° West 449 517 36,000  Level Cleveland Center
07:05PM 41.2175 -80.8978 267° West 444 511 36,000  Level Cleveland Center
07:06PM 41.2022 -81.0606 263° West 444 511 36,000  Level Cleveland Center
07:07PM 41.1889 -81.2425 264° West 450 518 36,000  Level Cleveland Center
07:08PM 41.1733 -81.4053 263° West 450 518 36,000 -60 Level Cleveland Center
07:09PM 41.1678 -81.5594 267° West 456 525 35,900 -60 Descending Cleveland Center
07:10PM 41.1581 -81.7222 266° West 456 525 35,900  Level Cleveland Center
07:11PM 41.1478 -81.8875 265° West 456 525 36,000  Climbing Cleveland Center
07:12PM 41.1333 -82.0525 263° West 461 531 35,900  Descending Cleveland Center
07:13PM 41.1206 -82.2231 264° West 466 536 36,000  Climbing Cleveland Center
07:14PM 41.1222 -82.3886 271° West 457 526 36,000  Level Cleveland Center
07:15PM 41.1319 -82.5542 275° West 457 526 36,000  Level Cleveland Center
07:16PM 41.1417 -82.7200 275° West 457 526 36,000  Level Cleveland Center
07:17PM 41.1506 -82.8994 274° West 457 526 36,000 -60 Level Cleveland Center
07:18PM 41.1597 -83.0597 274° West 452 520 35,900 -60 Descending Cleveland Center
07:19PM 41.1669 -83.2064 274° West 452 520 35,900  Level Cleveland Center
07:20PM 41.1733 -83.3722 273° West 446 513 36,000  Climbing Cleveland Center
07:21PM 41.1817 -83.5381 274° West 446 513 36,000  Level Cleveland Center
07:22PM 41.1919 -83.7042 275° West 451 519 36,000  Level Cleveland Center
07:23PM 41.2014 -83.8811 274° West 445 512 36,000  Level Cleveland Center
07:24PM 41.2111 -84.0472 275° West 445 512 36,000  Level Cleveland Center
07:25PM 41.2158 -84.1822 273° West 449 517 36,000 -480 Level Chicago Center
07:26PM 41.2231 -84.3469 273° West 448 516 35,200 -900 Descending Chicago Center
07:27PM 41.2294 -84.5131 273° West 449 517 34,200 -600 Descending Chicago Center
07:28PM 41.2364 -84.6794 273° West 452 520 34,000 -120 Descending Chicago Center
07:29PM 41.2431 -84.8458 273° West 451 519 34,000  Level Chicago Center
07:30PM 41.2500 -85.0475 273° West 453 521 34,000  Level Chicago Center
07:31PM 41.2564 -85.2167 273° West 455 524 34,000 -480 Level Chicago Center
07:32PM 41.2619 -85.3853 273° West 455 524 33,100 -1,380 Descending Chicago Center
07:33PM 41.2672 -85.5572 272° West 459 528 31,200 -2,040 Descending Chicago Center
07:34PM 41.2722 -85.7228 272° West 444 511 29,000 -2,160 Descending Chicago Center
07:35PM 41.2781 -85.8983 273° West 471 542 26,800 -2,160 Descending Chicago Center
07:36PM 41.2850 -86.0669 273° West 460 529 24,600 -2,160 Descending Chicago Center
07:37PM 41.3044 -86.2256 279° West 438 504 22,400 -1,980 Descending Chicago Center
07:38PM 41.3247 -86.4003 279° West 399 459 20,500 -1,560 Descending Chicago Center
07:39PM 41.3417 -86.5383 279° West 383 441 19,200 -1,020 Descending Chicago Center
07:40PM 41.3947 -86.6550 301° West 371 427 18,500 -1,140 Descending Chicago Center
07:41PM 41.4894 -86.7064 338° Northwest 362 417 16,900 -1,800 Descending Chicago Center
07:43PM 41.5808 -86.7544 339° North 356 410 14,800 -2,340 Descending Chicago Center
07:44PM 41.6933 -86.7972 344° North 359 413 12,100 -1,320 Descending Chicago Center
07:45PM 41.7806 -86.8108 353° North 326 375 12,100 -60 Level Chicago Center
07:46PM 41.8608 -86.8297 350° North 301 346 12,000 -720 Descending Chicago Center
07:47PM 41.9061 -86.9147 306° West 290 334 10,700 -1,440 Descending Chicago Center
07:48PM 41.9486 -87.0306 296° West 289 333 9,100 -1,200 Descending Chicago Center
07:49PM 41.9808 -87.1272 294° West 287 330 8,300 -960 Descending Chicago Center
07:50PM 41.9828 -87.2297 271° West 281 323 7,200 -660 Descending Chicago Center
07:51PM 41.9831 -87.3300 270° West 273 314 7,000 -120 Descending Chicago Center
07:52PM 41.9828 -87.4283 270° West 266 306 7,000 -420 Level Chicago Center
07:53PM 41.9831 -87.5264 270° West 229 264 6,200 -960 Descending Chicago Center
07:54PM 41.9836 -87.6097 271° West 227 261 5,100 -1,080 Descending Chicago Center
07:55PM 41.9842 -87.6933 271° West 226 260 4,000 -1,080 Descending Chicago Center